Time;durP1;ratioP1;P1;durP2;ratioP2;P2;SDS_P1;SDS_P2;PMS_P1;PMS_P2;Temp;Humidity;BMP_temperature;BMP_pressure;BME280_temperature;BME280_humidity;BME280_pressure;Samples;Min_cycle;Max_cycle;Signal;HPM_P1;HPM_P2
2022/08/13 03:48:34;;;;;;;2.55;1.00;;;16.10;99.90;;;;;;4742324;30;20683;-90
2022/08/13 06:13:07;;;;;;;0.50;0.38;;;18.20;99.90;;;;;;4734057;30;20502;-89
2022/08/13 06:32:07;;;;;;;;;;;;;;;;;;;;;
2022/08/13 07:36:08;;;;;;;1.05;0.50;;;23.40;99.90;;;;;;4913464;29;20428;-90
2022/08/13 07:39:12;;;;;;;0.38;0.30;;;23.60;99.90;;;;;;4921933;29;20055;-90
2022/08/13 08:34:52;;;;;;;;;;;;;;;;;;;;;
2022/08/13 08:46:12;;;;;;;0.73;0.40;;;28.10;91.30;;;;;;4716926;30;20080;-89
2022/08/13 08:57:30;;;;;;;0.40;0.40;;;28.70;84.50;;;;;;4682412;30;20080;-88
2022/08/13 09:01:05;;;;;;;0.45;0.32;;;28.90;82.80;;;;;;4681727;30;20062;-89
2022/08/13 09:04:29;;;;;;;1.00;0.30;;;29.20;83.80;;;;;;4641671;30;20058;-89
2022/08/13 09:08:24;;;;;;;1.27;0.50;;;29.30;85.90;;;;;;4648579;30;20066;-90
2022/08/13 09:35:02;;;;;;;0.77;0.40;;;30.70;75.70;;;;;;5529841;23;20048;-89
2022/08/13 09:37:27;;;;;;;0.30;0.30;;;30.80;72.80;;;;;;4964884;23;20086;-86
2022/08/13 09:40:31;;;;;;;0.40;0.30;;;30.90;73.80;;;;;;4942102;23;20195;-91
2022/08/13 09:43:35;;;;;;;0.57;0.30;;;31.10;73.90;;;;;;4876911;29;20057;-88
2022/08/13 09:46:09;;;;;;;0.30;0.30;;;31.20;70.70;;;;;;4860148;29;20045;-88
2022/08/13 09:48:45;;;;;;;0.35;0.30;;;31.30;72.50;;;;;;4875400;29;20041;-88
2022/08/13 09:51:20;;;;;;;2.63;0.35;;;31.30;70.40;;;;;;4863693;29;20052;-88
2022/08/13 09:58:04;;;;;;;0.40;0.30;;;31.50;70.50;;;;;;4879331;29;20048;-89
2022/08/13 10:00:46;;;;;;;0.52;0.30;;;31.80;70.00;;;;;;4862755;29;20052;-89
2022/08/13 10:47:36;;;;;;;;;;;;;;;;;;;;;
2022/08/13 11:10:22;;;;;;;1.60;0.38;;;33.90;58.70;;;;;;4715648;30;20051;-92
2022/08/13 11:14:24;;;;;;;0.32;0.30;;;33.90;58.60;;;;;;4636826;30;20509;-91
2022/08/13 12:06:20;;;;;;;0.30;0.30;;;35.40;58.20;;;;;;6191295;23;20146;-88
2022/08/13 12:10:19;;;;;;;1.95;0.43;;;35.30;53.10;;;;;;6073365;23;20050;-89
2022/08/13 12:21:36;;;;;;;1.30;0.40;;;35.10;56.70;;;;;;5901022;24;20033;-90
2022/08/13 15:04:07;;;;;;;;;;;;;;;;;;;;;
2022/08/13 15:08:33;;;;;;;;;;;;;;;;;;;;;
2022/08/13 15:35:33;;;;;;;0.98;0.60;;;34.10;53.50;;;;;;6298515;22;20027;-87
2022/08/13 15:45:08;;;;;;;1.13;0.68;;;33.70;54.50;;;;;;6303347;22;20030;-88
2022/08/13 15:52:19;;;;;;;;;;;;;;;;;;;;;
2022/08/13 15:59:39;;;;;;;1.25;0.70;;;33.40;56.30;;;;;;6122869;23;20048;-90
2022/08/13 16:03:46;;;;;;;;;;;;;;;;;;;;;
2022/08/13 16:20:16;;;;;;;1.63;0.70;;;32.50;57.10;;;;;;6295201;22;20358;-87
2022/08/13 16:23:34;;;;;;;2.08;0.70;;;32.30;57.50;;;;;;6278612;22;20019;-89
2022/08/13 16:26:08;;;;;;;1.02;0.75;;;32.10;58.40;;;;;;6279092;22;20057;-86
2022/08/13 16:29:27;;;;;;;3.17;0.70;;;31.80;57.90;;;;;;6278969;22;20335;-86
2022/08/13 16:36:58;;;;;;;0.80;0.80;;;31.50;59.70;;;;;;6306754;22;20095;-88
2022/08/13 16:39:59;;;;;;;1.23;0.70;;;31.40;60.00;;;;;;6127075;23;20452;-89
2022/08/13 16:45:29;;;;;;;0.65;0.50;;;31.10;60.90;;;;;;6299986;22;20019;-89
2022/08/13 16:48:07;;;;;;;1.77;0.68;;;30.90;61.00;;;;;;6278734;22;20027;-87
2022/08/13 16:50:43;;;;;;;0.93;0.70;;;30.70;61.40;;;;;;6306741;22;20086;-87
2022/08/13 16:54:03;;;;;;;0.93;0.70;;;30.80;61.10;;;;;;6300329;22;20149;-89
2022/08/13 17:19:29;;;;;;;0.90;0.60;;;30.00;67.20;;;;;;6097711;23;20041;-90
2022/08/13 17:23:09;;;;;;;1.75;0.70;;;29.90;67.80;;;;;;6096988;23;20017;-91
2022/08/13 17:26:59;;;;;;;;;;;;;;;;;;;;;
2022/08/13 17:30:18;;;;;;;0.70;0.60;;;29.60;69.30;;;;;;5996219;23;20019;-88
2022/08/13 17:33:36;;;;;;;3.47;0.68;;;29.50;69.70;;;;;;6005578;23;20019;-89
2022/08/13 17:37:18;;;;;;;;;;;;;;;;;;;;;
2022/08/13 17:39:58;;;;;;;0.83;0.60;;;29.00;69.00;;;;;;6159045;23;20028;-89
2022/08/13 17:42:32;;;;;;;2.08;0.50;;;29.10;69.40;;;;;;6188136;23;20455;-86
2022/08/13 17:45:00;;;;;;;0.90;0.80;;;29.00;70.60;;;;;;6213644;23;20095;-88
2022/08/13 17:47:39;;;;;;;1.77;0.68;;;28.90;70.60;;;;;;6212619;23;20032;-88
2022/08/13 17:50:17;;;;;;;0.88;0.65;;;28.80;70.40;;;;;;6187484;23;20016;-88
2022/08/13 17:52:50;;;;;;;1.27;1.17;;;28.80;70.80;;;;;;6211861;23;20052;-88
2022/08/13 17:55:24;;;;;;;0.85;0.70;;;28.70;71.00;;;;;;6213338;23;20012;-88
2022/08/13 18:01:26;;;;;;;0.80;0.63;;;28.70;70.50;;;;;;6304602;22;20027;-92
2022/08/13 18:04:08;;;;;;;1.80;0.80;;;28.50;71.20;;;;;;6308165;22;20080;-88
2022/08/13 18:06:43;;;;;;;2.50;0.80;;;28.40;71.10;;;;;;6280673;22;20058;-87
2022/08/13 18:09:20;;;;;;;0.98;0.60;;;28.30;71.70;;;;;;6281878;22;20026;-89
2022/08/13 18:16:28;;;;;;;;;;;;;;;;;;;;;
2022/08/13 18:19:08;;;;;;;1.00;0.80;;;28.20;71.90;;;;;;6278790;22;20019;-88
2022/08/13 18:21:46;;;;;;;2.03;0.75;;;27.60;71.90;;;;;;6280679;22;20019;-87
2022/08/13 18:24:24;;;;;;;0.90;0.80;;;27.60;72.60;;;;;;6281275;22;20448;-90
2022/08/13 18:26:57;;;;;;;1.00;0.70;;;27.40;73.20;;;;;;6308063;22;20012;-90
2022/08/13 18:29:31;;;;;;;;;;;27.30;73.60;;;;;;6280662;22;20024;-87
2022/08/13 18:32:10;;;;;;;1.83;0.80;;;27.20;73.70;;;;;;6279716;22;19915;-86
2022/08/13 18:34:45;;;;;;;2.38;0.60;;;27.10;74.00;;;;;;6306080;22;20018;-90
2022/08/13 18:37:25;;;;;;;2.97;0.60;;;27.00;73.90;;;;;;6308415;22;20023;-90
2022/08/13 18:40:08;;;;;;;0.63;0.50;;;26.90;73.30;;;;;;6306992;22;20092;-90
2022/08/13 18:42:36;;;;;;;0.52;0.50;;;26.70;73.60;;;;;;6281064;22;20523;-89
2022/08/13 18:45:10;;;;;;;1.95;0.60;;;26.60;73.70;;;;;;6280930;22;20019;-89
2022/08/13 18:47:39;;;;;;;0.60;0.55;;;26.50;74.00;;;;;;6281024;22;20023;-92
2022/08/13 18:50:21;;;;;;;0.82;0.60;;;26.40;74.40;;;;;;6308468;22;20342;-88
2022/08/13 18:52:54;;;;;;;1.58;0.50;;;26.30;74.60;;;;;;6280010;22;20122;-88
2022/08/13 18:55:35;;;;;;;0.70;0.50;;;26.20;75.20;;;;;;6280288;22;20015;-87
2022/08/13 19:06:57;;;;;;;1.00;0.50;;;25.80;76.30;;;;;;6074849;23;20023;-90
2022/08/13 19:10:31;;;;;;;;;;;;;;;;;;;;;
2022/08/13 19:13:54;;;;;;;1.20;0.70;;;25.40;76.60;;;;;;6027194;23;20358;-88
2022/08/13 19:16:39;;;;;;;0.80;0.50;;;25.20;76.70;;;;;;6094037;23;20065;-90
2022/08/13 19:19:09;;;;;;;0.85;0.50;;;25.10;77.20;;;;;;6046424;23;20019;-91
2022/08/13 19:21:47;;;;;;;0.85;0.50;;;25.00;76.90;;;;;;6095167;23;20118;-90
2022/08/13 19:24:15;;;;;;;1.02;0.50;;;24.90;77.30;;;;;;6094674;23;20027;-90
2022/08/13 19:26:52;;;;;;;0.50;0.50;;;24.80;77.30;;;;;;6072119;23;20041;-88
2022/08/13 19:29:22;;;;;;;1.20;0.60;;;24.60;77.30;;;;;;6095124;23;20473;-89
2022/08/13 19:31:53;;;;;;;2.35;0.70;;;24.50;77.90;;;;;;6072136;23;20022;-89
2022/08/13 19:34:28;;;;;;;0.70;0.60;;;24.40;78.00;;;;;;6046442;23;20501;-88
2022/08/13 19:37:15;;;;;;;1.55;0.60;;;24.30;77.90;;;;;;6111485;22;20027;-93
2022/08/13 19:51:08;;;;;;;0.77;0.52;;;24.00;79.40;;;;;;6323626;22;20088;-87
2022/08/13 19:53:39;;;;;;;1.70;0.60;;;23.90;79.70;;;;;;6290565;22;20446;-87
2022/08/13 19:56:22;;;;;;;1.70;0.50;;;23.80;80.00;;;;;;6313052;22;20058;-89
2022/08/13 20:00:07;;;;;;;;;;;;;;;;;;;;;
2022/08/13 20:02:46;;;;;;;0.60;0.50;;;23.80;80.70;;;;;;6160461;23;20025;-88
2022/08/13 20:05:25;;;;;;;0.63;0.52;;;23.80;80.70;;;;;;6108209;23;20025;-89
2022/08/13 20:08:16;;;;;;;;;;;;;;;;;;;;;
2022/08/13 20:18:12;;;;;;;1.17;0.73;;;23.60;80.60;;;;;;6152485;23;20020;-88
2022/08/13 20:20:42;;;;;;;0.77;0.50;;;23.40;81.00;;;;;;6152803;23;20063;-88
2022/08/13 20:23:16;;;;;;;1.60;0.55;;;23.50;81.10;;;;;;6152532;23;20020;-87
2022/08/13 20:25:47;;;;;;;0.77;0.40;;;23.50;81.50;;;;;;6152928;23;20364;-87
2022/08/13 20:28:20;;;;;;;0.40;0.30;;;23.40;81.40;;;;;;6152240;23;20405;-87
2022/08/13 20:30:53;;;;;;;0.73;0.47;;;23.40;81.90;;;;;;6128107;23;20018;-87
2022/08/13 20:33:27;;;;;;;0.85;0.40;;;23.40;82.10;;;;;;6127547;23;20095;-85
2022/08/13 20:35:55;;;;;;;0.50;0.40;;;23.30;82.40;;;;;;6127748;23;20021;-86
2022/08/13 20:38:22;;;;;;;1.52;0.50;;;23.30;82.40;;;;;;6155499;22;20020;-85
2022/08/13 20:40:53;;;;;;;0.85;0.50;;;23.30;82.60;;;;;;6271767;22;20019;-87
2022/08/13 20:43:19;;;;;;;0.40;0.40;;;23.30;82.70;;;;;;6274774;22;20442;-88
2022/08/13 20:45:46;;;;;;;0.77;0.47;;;23.30;82.20;;;;;;6248739;22;20026;-90
2022/08/13 20:48:21;;;;;;;0.60;0.40;;;23.20;83.10;;;;;;6278423;22;20016;-87
2022/08/13 20:50:47;;;;;;;0.75;0.50;;;23.20;82.90;;;;;;6280433;22;20022;-85
2022/08/13 21:09:56;;;;;;;;;;;;;;;;;;;;;
2022/08/13 21:39:13;;;;;;;1.58;0.70;;;22.60;89.00;;;;;;6131578;23;20021;-89
2022/08/13 22:34:05;;;;;;;3.63;0.90;;;21.40;97.30;;;;;;6183991;23;20463;-89
2022/08/13 22:52:26;;;;;;;;;;;;;;;;;;;;;
2022/08/13 22:59:36;;;;;;;;;;;;;;;;;;;;;
2022/08/13 23:22:32;;;;;;;1.80;1.20;;;20.70;99.90;;;;;;6096756;23;20017;-88
2022/08/13 23:37:23;;;;;;;4.93;1.58;;;20.50;99.90;;;;;;6094121;23;20022;-90
2022/08/13 23:44:20;;;;;;;2.13;1.20;;;20.40;99.90;;;;;;6197960;22;20389;-90
